Time;durP1;ratioP1;P1;durP2;ratioP2;P2;SDS_P1;SDS_P2;PMS_P1;PMS_P2;Temp;Humidity;BMP_temperature;BMP_pressure;BME280_temperature;BME280_humidity;BME280_pressure;Samples;Min_cycle;Max_cycle;Signal;HPM_P1;HPM_P2
2022/12/22 03:27:23;;;;;;;24.20;16.33;;;7.00;99.90;;;;;;5015842;28;20202;-77
2022/12/22 03:29:50;;;;;;;26.37;17.87;;;7.00;99.90;;;;;;5015877;28;20203;-77
2022/12/22 03:32:18;;;;;;;25.23;17.30;;;7.10;99.90;;;;;;5015586;28;20226;-77
2022/12/22 03:34:44;;;;;;;24.87;18.00;;;7.00;99.90;;;;;;5015761;28;20201;-76
2022/12/22 03:37:11;;;;;;;25.57;17.60;;;7.00;99.90;;;;;;5015533;28;20262;-77
2022/12/22 03:39:37;;;;;;;25.17;17.43;;;7.10;99.90;;;;;;5015478;28;20570;-76
2022/12/22 03:47:34;;;;;;;23.73;16.90;;;7.00;99.90;;;;;;5015418;28;20214;-76
2022/12/22 03:50:00;;;;;;;24.90;16.73;;;7.00;99.90;;;;;;5015314;28;20203;-76
2022/12/22 03:52:27;;;;;;;23.77;16.80;;;7.00;99.90;;;;;;5015403;28;20203;-76
2022/12/22 03:54:53;;;;;;;25.73;16.43;;;7.00;99.90;;;;;;5015273;28;20199;-76
2022/12/22 03:57:20;;;;;;;23.37;16.47;;;7.00;99.90;;;;;;5015105;28;20629;-76
2022/12/22 03:59:46;;;;;;;25.20;16.73;;;7.10;99.90;;;;;;5015115;28;20199;-77
2022/12/22 04:02:13;;;;;;;20.93;15.17;;;7.00;99.90;;;;;;5015148;28;20199;-76
2022/12/22 04:04:41;;;;;;;22.83;16.23;;;7.10;99.90;;;;;;5015001;28;20555;-76
2022/12/22 04:07:07;;;;;;;23.07;16.03;;;7.10;99.90;;;;;;5015166;28;20199;-76
2022/12/22 04:09:34;;;;;;;23.13;15.77;;;7.10;99.90;;;;;;5015090;28;20198;-76
2022/12/22 04:14:45;;;;;;;21.23;15.90;;;7.10;99.90;;;;;;5014821;28;20202;-76
2022/12/22 04:17:11;;;;;;;23.33;16.20;;;7.10;99.90;;;;;;5014648;28;20763;-76
2022/12/22 04:19:38;;;;;;;28.67;17.93;;;7.10;99.90;;;;;;5014870;28;20199;-76
2022/12/22 04:22:06;;;;;;;23.63;17.27;;;7.10;99.90;;;;;;5014796;28;20203;-76
2022/12/22 04:24:33;;;;;;;25.40;19.00;;;7.10;99.90;;;;;;5014640;28;20297;-76
2022/12/22 04:26:59;;;;;;;26.03;18.97;;;7.10;99.90;;;;;;5014688;28;20202;-76
2022/12/22 04:29:26;;;;;;;28.63;19.40;;;7.10;99.90;;;;;;5014557;28;20249;-76
2022/12/22 04:31:52;;;;;;;27.57;18.87;;;7.10;99.90;;;;;;5014552;28;20658;-76
2022/12/22 04:34:19;;;;;;;27.77;19.07;;;7.10;99.90;;;;;;5014892;28;20199;-76
2022/12/22 04:36:45;;;;;;;27.43;18.80;;;7.10;99.90;;;;;;5015073;28;20273;-76
2022/12/22 04:39:13;;;;;;;27.07;18.23;;;7.20;99.90;;;;;;5018060;28;20199;-76
2022/12/22 04:41:40;;;;;;;26.83;18.53;;;7.10;99.90;;;;;;5018256;28;20224;-76
2022/12/22 04:44:07;;;;;;;24.43;17.80;;;7.10;99.90;;;;;;5014244;28;20728;-76
2022/12/22 04:46:33;;;;;;;26.87;18.77;;;7.10;99.90;;;;;;5014139;28;20301;-76
2022/12/22 04:49:00;;;;;;;25.47;18.70;;;7.00;99.90;;;;;;5014190;28;20724;-77
2022/12/22 04:51:27;;;;;;;26.67;17.87;;;7.20;99.90;;;;;;5014422;28;20257;-76
2022/12/22 04:53:53;;;;;;;25.80;18.37;;;7.10;99.90;;;;;;5014253;28;20195;-76
2022/12/22 04:56:21;;;;;;;25.47;18.57;;;7.00;99.90;;;;;;5014074;28;20202;-76
2022/12/22 04:58:48;;;;;;;27.03;18.17;;;7.00;99.90;;;;;;5013906;28;20571;-76
2022/12/22 05:01:16;;;;;;;26.50;18.40;;;6.90;99.90;;;;;;5014106;28;20203;-77
2022/12/22 05:03:43;;;;;;;23.57;16.43;;;6.90;99.90;;;;;;5014080;28;20258;-76
2022/12/22 05:06:10;;;;;;;24.30;18.40;;;7.00;99.90;;;;;;5014044;28;20245;-77
2022/12/22 05:08:37;;;;;;;27.67;18.97;;;6.90;99.90;;;;;;5013903;28;20195;-76
2022/12/22 05:11:03;;;;;;;28.73;19.47;;;7.00;99.90;;;;;;5013860;28;20203;-76
2022/12/22 05:13:32;;;;;;;24.97;18.63;;;7.10;99.90;;;;;;5013649;28;20709;-77
2022/12/22 05:16:04;;;;;;;29.37;20.60;;;7.10;99.90;;;;;;5013978;28;20200;-77
2022/12/22 05:18:31;;;;;;;27.13;20.20;;;7.00;99.90;;;;;;5013749;28;20226;-77
2022/12/22 05:20:57;;;;;;;29.90;20.30;;;7.00;99.90;;;;;;5013716;28;20198;-78
2022/12/22 05:23:24;;;;;;;25.87;19.70;;;7.00;99.90;;;;;;5013716;28;20244;-77
2022/12/22 05:25:51;;;;;;;27.93;21.33;;;7.10;99.90;;;;;;5014470;28;20195;-77
2022/12/22 05:28:17;;;;;;;27.87;20.37;;;7.00;99.90;;;;;;5014176;28;20249;-77
2022/12/22 05:30:45;;;;;;;26.30;20.40;;;7.00;99.90;;;;;;5013746;28;20575;-77
2022/12/22 05:33:12;;;;;;;27.33;20.10;;;7.00;99.90;;;;;;5013731;28;20203;-78
2022/12/22 05:35:38;;;;;;;25.10;19.90;;;7.00;99.90;;;;;;5013672;28;20203;-78
2022/12/22 05:38:05;;;;;;;26.63;19.83;;;7.00;99.90;;;;;;5013367;28;20308;-77
2022/12/22 05:40:32;;;;;;;25.37;18.53;;;7.00;99.90;;;;;;5013427;28;20202;-77
2022/12/22 05:42:58;;;;;;;23.97;18.30;;;7.10;99.90;;;;;;5013678;28;20200;-76
2022/12/22 05:45:25;;;;;;;25.63;17.73;;;7.20;99.90;;;;;;5013567;28;20230;-77
2022/12/22 05:47:53;;;;;;;21.70;17.33;;;7.20;99.90;;;;;;5013998;28;20257;-76
2022/12/22 05:50:23;;;;;;;22.80;17.63;;;7.20;99.90;;;;;;5014194;28;20198;-75
2022/12/22 05:52:50;;;;;;;22.97;17.00;;;7.30;99.90;;;;;;5013277;28;20257;-76
2022/12/22 05:55:17;;;;;;;24.87;16.77;;;7.20;99.90;;;;;;5013162;28;20195;-76
2022/12/22 05:57:43;;;;;;;21.57;15.97;;;7.20;99.90;;;;;;5013585;28;20633;-76
2022/12/22 06:00:13;;;;;;;20.43;15.90;;;7.30;99.90;;;;;;5013793;28;20199;-75
2022/12/22 06:02:39;;;;;;;21.03;16.43;;;7.30;99.90;;;;;;5013638;28;20262;-75
2022/12/22 06:05:09;;;;;;;22.03;17.07;;;7.30;99.90;;;;;;5013272;28;20199;-75
2022/12/22 06:07:35;;;;;;;23.60;16.60;;;7.30;99.90;;;;;;5013906;28;20729;-75
2022/12/22 06:10:02;;;;;;;33.53;18.87;;;7.20;99.90;;;;;;5013630;28;20559;-75
2022/12/22 06:12:29;;;;;;;28.83;18.00;;;7.20;99.90;;;;;;5013962;28;20199;-75
2022/12/22 06:14:55;;;;;;;35.77;18.17;;;7.20;99.90;;;;;;5013414;28;20250;-75
2022/12/22 06:17:22;;;;;;;24.33;17.77;;;7.20;99.90;;;;;;5013342;28;20304;-75
2022/12/22 06:19:48;;;;;;;25.60;17.57;;;7.10;99.90;;;;;;5012965;28;20654;-75
2022/12/22 06:22:16;;;;;;;25.53;17.40;;;7.10;99.90;;;;;;5013165;28;20198;-75
2022/12/22 06:24:43;;;;;;;28.13;18.83;;;7.10;99.90;;;;;;5013161;28;20199;-76
2022/12/22 06:27:11;;;;;;;26.97;18.73;;;7.10;99.90;;;;;;5013052;28;20226;-76
2022/12/22 06:29:37;;;;;;;27.47;18.33;;;7.10;99.90;;;;;;5013013;28;20286;-77
2022/12/22 06:32:05;;;;;;;27.53;16.97;;;7.10;99.90;;;;;;5013022;28;20225;-76
2022/12/22 06:34:31;;;;;;;22.93;15.83;;;7.10;99.90;;;;;;5013131;28;20239;-76
2022/12/22 06:36:58;;;;;;;29.30;17.60;;;7.20;99.90;;;;;;5013536;28;20199;-76
2022/12/22 06:39:26;;;;;;;24.43;16.03;;;7.20;99.90;;;;;;5012910;28;20199;-76
2022/12/22 06:44:37;;;;;;;31.63;17.13;;;7.20;99.90;;;;;;5012801;28;20238;-77
2022/12/22 06:47:03;;;;;;;26.00;15.93;;;7.20;99.90;;;;;;5012401;28;20714;-76
2022/12/22 06:49:30;;;;;;;26.03;17.10;;;7.20;99.90;;;;;;5012694;28;20199;-76
2022/12/22 06:51:57;;;;;;;23.33;16.17;;;7.20;99.90;;;;;;5012777;28;20269;-75
2022/12/22 06:54:23;;;;;;;28.00;17.57;;;7.20;99.90;;;;;;5012598;28;20203;-76
2022/12/22 06:56:51;;;;;;;27.30;17.07;;;7.20;99.90;;;;;;5013299;28;20619;-76
2022/12/22 06:59:18;;;;;;;26.53;16.33;;;7.30;99.90;;;;;;5012411;28;20225;-76
2022/12/22 07:01:44;;;;;;;24.87;16.67;;;7.30;99.90;;;;;;5012434;28;20203;-78
2022/12/22 07:04:15;;;;;;;27.10;16.63;;;7.30;99.90;;;;;;5014135;28;20195;-76
2022/12/22 07:06:42;;;;;;;20.70;14.87;;;7.30;99.90;;;;;;5018651;28;20203;-76
2022/12/22 07:09:09;;;;;;;20.40;14.10;;;7.40;99.90;;;;;;5020015;28;20199;-76
2022/12/22 07:11:35;;;;;;;18.83;13.37;;;7.50;99.90;;;;;;5016298;28;20269;-77
2022/12/22 07:14:03;;;;;;;17.33;12.93;;;7.50;99.90;;;;;;5015229;28;20199;-75
2022/12/22 07:16:30;;;;;;;14.23;11.40;;;7.50;99.90;;;;;;5014050;28;20729;-76
2022/12/22 07:18:56;;;;;;;18.70;11.40;;;7.60;99.90;;;;;;5016257;28;20226;-76
2022/12/22 07:21:23;;;;;;;18.00;11.13;;;7.60;99.90;;;;;;5015815;28;20199;-77
2022/12/22 07:23:50;;;;;;;14.30;8.63;;;7.60;99.90;;;;;;5016999;28;20261;-76
2022/12/22 07:26:16;;;;;;;16.27;9.10;;;7.70;99.90;;;;;;5017577;28;20651;-75
2022/12/22 07:28:43;;;;;;;12.20;8.43;;;7.70;99.90;;;;;;5016137;28;20199;-76
2022/12/22 07:31:11;;;;;;;11.17;7.53;;;7.70;99.90;;;;;;5015903;28;20195;-75
2022/12/22 07:33:38;;;;;;;13.70;8.70;;;7.80;99.90;;;;;;5016620;28;20662;-75
2022/12/22 07:36:08;;;;;;;12.33;7.67;;;7.80;99.90;;;;;;5015605;28;20196;-76
2022/12/22 07:38:37;;;;;;;12.23;7.70;;;7.80;99.90;;;;;;5017463;28;20694;-76
2022/12/22 07:42:43;;;;;;;12.17;7.30;;;7.90;99.90;;;;;;5017904;28;20199;-75
2022/12/22 07:43:51;;;;;;;13.50;7.00;;;7.90;99.90;;;;;;5017979;28;20235;-76
2022/12/22 07:46:19;;;;;;;9.77;6.53;;;8.00;99.90;;;;;;5023935;28;20226;-77
2022/12/22 07:51:33;;;;;;;8.83;5.03;;;8.10;99.90;;;;;;5022112;28;20205;-76
2022/12/22 07:53:59;;;;;;;6.40;4.20;;;8.20;99.90;;;;;;5023695;28;20203;-76
2022/12/22 07:56:26;;;;;;;6.37;3.60;;;8.40;99.90;;;;;;5020534;28;20258;-76
2022/12/22 07:58:52;;;;;;;8.73;4.27;;;8.40;99.90;;;;;;5021334;28;20256;-75
2022/12/22 08:01:20;;;;;;;7.40;2.97;;;8.40;99.90;;;;;;5022768;28;20200;-76
2022/12/22 08:03:47;;;;;;;6.43;2.97;;;8.50;99.90;;;;;;5021246;28;20221;-75
2022/12/22 08:06:14;;;;;;;8.93;3.33;;;8.60;99.90;;;;;;5020421;28;20202;-75
2022/12/22 08:08:40;;;;;;;10.23;2.97;;;8.60;99.90;;;;;;5016612;28;20548;-75
2022/12/22 08:11:07;;;;;;;5.90;2.50;;;8.70;99.90;;;;;;5015950;28;20203;-75
2022/12/22 08:13:34;;;;;;;8.43;2.80;;;8.80;99.90;;;;;;5015431;28;20281;-75
2022/12/22 08:16:03;;;;;;;5.87;2.50;;;8.80;99.90;;;;;;5015128;28;20543;-75
2022/12/22 08:18:31;;;;;;;6.40;2.60;;;8.80;99.90;;;;;;5014861;28;20258;-75
2022/12/22 08:20:58;;;;;;;5.33;2.40;;;8.80;99.90;;;;;;5014572;28;20251;-75
2022/12/22 08:23:25;;;;;;;10.33;2.60;;;9.00;99.90;;;;;;5014951;28;20199;-75
2022/12/22 08:25:56;;;;;;;9.73;2.73;;;9.00;99.90;;;;;;5014724;28;20199;-75
2022/12/22 08:28:23;;;;;;;8.10;2.87;;;9.10;99.90;;;;;;5014311;28;20195;-75
2022/12/22 08:30:50;;;;;;;5.93;2.37;;;9.10;99.90;;;;;;5014812;28;20659;-76
2022/12/22 08:33:17;;;;;;;5.23;2.73;;;9.10;99.90;;;;;;5018731;28;20535;-76
2022/12/22 08:35:45;;;;;;;7.10;3.00;;;9.10;99.90;;;;;;5024803;28;20199;-76
2022/12/22 08:38:13;;;;;;;6.73;2.50;;;9.10;99.90;;;;;;5021806;28;20246;-77
2022/12/22 08:40:44;;;;;;;6.93;2.43;;;9.20;99.90;;;;;;5022644;28;20199;-77
2022/12/22 08:43:12;;;;;;;6.03;2.57;;;9.20;99.90;;;;;;5020897;28;20205;-77
2022/12/22 08:45:38;;;;;;;5.93;2.27;;;9.20;99.90;;;;;;5022940;28;20285;-77
2022/12/22 08:48:05;;;;;;;8.80;2.70;;;9.30;99.90;;;;;;5019428;28;20230;-77
2022/12/22 08:50:32;;;;;;;4.53;2.30;;;9.30;99.90;;;;;;5018534;28;20257;-77
2022/12/22 08:53:04;;;;;;;8.33;2.10;;;9.30;99.90;;;;;;5019301;28;20247;-77
2022/12/22 08:55:31;;;;;;;4.60;2.53;;;9.50;99.90;;;;;;5016249;28;20610;-77
2022/12/22 08:57:57;;;;;;;6.17;2.33;;;9.60;99.90;;;;;;5015747;28;20690;-77
2022/12/22 09:00:24;;;;;;;5.43;2.10;;;9.80;99.90;;;;;;5015025;28;20199;-78
2022/12/22 09:02:51;;;;;;;6.27;2.13;;;9.90;99.90;;;;;;5016595;28;20195;-78
2022/12/22 09:05:18;;;;;;;5.73;2.43;;;10.00;99.90;;;;;;5014308;28;20203;-77
2022/12/22 09:07:46;;;;;;;7.73;2.57;;;9.90;99.90;;;;;;5014096;28;20261;-79
2022/12/22 09:10:14;;;;;;;10.97;2.67;;;10.00;99.90;;;;;;5015348;28;20203;-79
2022/12/22 09:12:40;;;;;;;6.20;2.40;;;10.00;99.90;;;;;;5014978;28;20257;-76
2022/12/22 09:15:08;;;;;;;6.33;2.20;;;9.90;99.90;;;;;;5016347;28;20207;-76
2022/12/22 09:17:36;;;;;;;8.23;2.30;;;9.90;99.90;;;;;;5014724;28;20203;-77
2022/12/22 09:20:04;;;;;;;6.77;2.63;;;10.00;99.90;;;;;;5013969;28;20203;-78
2022/12/22 09:22:30;;;;;;;7.33;2.60;;;10.00;99.90;;;;;;5013695;28;20202;-78
2022/12/22 09:24:57;;;;;;;6.20;2.47;;;9.90;99.90;;;;;;5014690;28;20199;-79
2022/12/22 09:27:25;;;;;;;5.10;2.50;;;9.90;99.90;;;;;;5013589;28;20254;-80
2022/12/22 09:29:51;;;;;;;7.17;2.47;;;9.80;99.90;;;;;;5013738;28;20220;-79
2022/12/22 09:32:18;;;;;;;6.63;2.70;;;9.70;99.90;;;;;;5014000;28;20199;-78
2022/12/22 09:34:44;;;;;;;6.13;2.40;;;9.80;99.90;;;;;;5013654;28;20254;-79
2022/12/22 09:37:13;;;;;;;5.80;2.33;;;9.80;99.90;;;;;;5013366;28;20199;-79
2022/12/22 09:39:40;;;;;;;6.10;2.03;;;9.80;99.90;;;;;;5012319;28;20269;-78
2022/12/22 09:42:14;;;;;;;10.30;2.50;;;10.10;99.90;;;;;;5013185;28;20538;-80
2022/12/22 09:44:44;;;;;;;9.23;2.67;;;10.40;99.90;;;;;;5013067;28;20250;-79
2022/12/22 09:47:18;;;;;;;5.47;2.13;;;10.40;99.90;;;;;;5013170;28;20762;-82
2022/12/22 09:49:44;;;;;;;5.73;1.97;;;10.60;99.90;;;;;;5013301;28;20725;-82
2022/12/22 09:52:22;;;;;;;4.77;2.00;;;10.90;99.90;;;;;;5013036;28;20226;-83
2022/12/22 09:54:50;;;;;;;6.07;2.40;;;11.10;99.90;;;;;;5013423;28;20199;-80
2022/12/22 09:57:16;;;;;;;4.00;2.07;;;11.20;99.90;;;;;;5013318;28;20198;-82
2022/12/22 09:59:44;;;;;;;6.50;2.10;;;11.30;99.90;;;;;;5013146;28;20231;-80
2022/12/22 10:02:21;;;;;;;6.60;2.47;;;11.40;99.90;;;;;;5013149;28;20257;-77
2022/12/22 10:04:59;;;;;;;5.80;2.47;;;11.20;99.90;;;;;;5012951;28;20199;-76
2022/12/22 10:07:31;;;;;;;5.30;2.20;;;11.00;99.90;;;;;;5013180;28;20202;-77
2022/12/22 10:09:58;;;;;;;8.57;2.67;;;10.80;99.90;;;;;;5013910;28;20211;-78
2022/12/22 10:12:25;;;;;;;4.33;1.80;;;10.50;99.90;;;;;;5016191;28;20199;-79
2022/12/22 10:14:54;;;;;;;9.13;2.10;;;10.30;99.90;;;;;;5012763;28;20195;-80
2022/12/22 10:17:26;;;;;;;7.67;2.37;;;10.10;99.90;;;;;;5015416;28;20203;-78
2022/12/22 10:20:06;;;;;;;6.63;1.87;;;10.00;99.90;;;;;;5012520;28;20237;-78
2022/12/22 10:22:35;;;;;;;6.37;2.47;;;10.00;99.90;;;;;;5012800;28;20194;-78
2022/12/22 10:25:05;;;;;;;7.40;2.50;;;10.00;99.90;;;;;;5012664;28;20294;-81
2022/12/22 10:27:35;;;;;;;7.00;2.00;;;10.10;99.90;;;;;;5012624;28;20257;-79
2022/12/22 10:30:21;;;;;;;9.90;3.13;;;10.10;99.90;;;;;;5012534;28;20195;-78
2022/12/22 10:33:05;;;;;;;5.97;2.50;;;10.10;99.90;;;;;;5012574;28;20206;-77
2022/12/22 10:35:47;;;;;;;9.07;2.87;;;10.10;99.90;;;;;;5012447;28;20613;-77
2022/12/22 10:38:33;;;;;;;4.67;2.33;;;10.20;99.90;;;;;;5012406;28;20288;-76
2022/12/22 10:41:04;;;;;;;8.57;2.97;;;10.20;99.90;;;;;;4999259;28;20200;-79
2022/12/22 10:43:34;;;;;;;7.90;2.57;;;10.20;99.90;;;;;;4992851;28;20208;-77
2022/12/22 10:46:03;;;;;;;7.97;1.90;;;10.10;99.90;;;;;;4993060;28;20227;-77
2022/12/22 10:48:33;;;;;;;7.27;2.80;;;9.90;99.90;;;;;;4994944;28;20208;-76
2022/12/22 10:51:01;;;;;;;8.50;2.17;;;9.70;99.90;;;;;;4997219;28;20208;-77
2022/12/22 10:53:41;;;;;;;9.37;2.53;;;9.50;99.90;;;;;;4997633;28;20204;-76
2022/12/22 10:56:17;;;;;;;8.40;2.40;;;9.40;99.90;;;;;;4997594;28;20250;-77
2022/12/22 10:58:49;;;;;;;8.67;2.60;;;9.30;99.90;;;;;;4997337;28;20231;-77
2022/12/22 11:01:24;;;;;;;6.97;2.33;;;9.30;99.90;;;;;;4997044;28;20208;-77
2022/12/22 11:03:51;;;;;;;5.27;2.13;;;9.30;99.90;;;;;;4999663;28;20208;-76
2022/12/22 11:06:19;;;;;;;6.23;2.40;;;9.20;99.90;;;;;;5004503;28;20196;-79
2022/12/22 11:08:45;;;;;;;6.47;2.00;;;9.30;99.90;;;;;;5000773;28;20206;-80
2022/12/22 11:11:18;;;;;;;9.03;2.53;;;9.30;99.90;;;;;;4999406;28;20203;-84
2022/12/22 11:13:55;;;;;;;3.47;1.80;;;9.40;99.90;;;;;;5003260;28;20660;-79
2022/12/22 11:16:29;;;;;;;3.93;1.90;;;9.40;99.90;;;;;;5007173;28;20223;-79
2022/12/22 11:19:11;;;;;;;5.43;1.80;;;9.30;99.90;;;;;;5005993;28;20756;-79
2022/12/22 11:21:45;;;;;;;5.07;2.07;;;9.30;99.90;;;;;;5002928;28;20223;-78
2022/12/22 11:24:25;;;;;;;9.50;1.93;;;9.20;99.90;;;;;;4998137;28;20225;-77
2022/12/22 11:27:02;;;;;;;6.57;2.30;;;9.00;99.90;;;;;;5000848;28;20253;-77
2022/12/22 11:29:50;;;;;;;4.30;1.70;;;8.90;99.90;;;;;;4999323;28;20257;-77
2022/12/22 11:32:31;;;;;;;4.13;1.83;;;8.80;99.90;;;;;;5000616;28;20273;-76
2022/12/22 11:35:07;;;;;;;2.80;2.00;;;8.80;99.90;;;;;;5000465;28;20203;-78
2022/12/22 11:37:43;;;;;;;4.13;2.30;;;8.80;99.90;;;;;;4998343;28;20262;-77
2022/12/22 11:40:20;;;;;;;5.53;2.37;;;8.70;99.90;;;;;;4996246;28;20253;-77
2022/12/22 11:43:01;;;;;;;4.30;1.67;;;8.60;99.90;;;;;;4999174;28;20206;-77
2022/12/22 11:45:38;;;;;;;5.77;1.93;;;8.60;99.90;;;;;;4999244;28;20274;-74
2022/12/22 11:48:15;;;;;;;6.00;2.10;;;8.50;99.90;;;;;;4999646;28;20199;-77
2022/12/22 11:50:45;;;;;;;6.07;2.20;;;8.40;99.90;;;;;;4998039;28;20206;-76
2022/12/22 11:53:47;;;;;;;7.70;2.20;;;8.40;99.90;;;;;;4998702;28;20262;-75
2022/12/22 11:56:22;;;;;;;5.30;2.20;;;8.50;99.90;;;;;;4997799;28;20250;-77
2022/12/22 11:59:07;;;;;;;2.87;2.10;;;8.70;99.90;;;;;;4997200;28;20316;-75
2022/12/22 12:02:00;;;;;;;4.13;2.00;;;8.80;99.90;;;;;;4997537;28;20207;-77
2022/12/22 12:05:12;;;;;;;5.80;1.47;;;8.80;99.90;;;;;;4999742;28;20196;-77
2022/12/22 12:07:42;;;;;;;5.00;2.00;;;8.80;99.90;;;;;;4993796;28;20208;-78
2022/12/22 12:10:17;;;;;;;5.20;1.90;;;8.80;99.90;;;;;;4998654;28;20572;-78
2022/12/22 12:12:53;;;;;;;2.87;1.80;;;8.80;99.90;;;;;;4999477;28;20204;-77
2022/12/22 12:15:31;;;;;;;4.60;1.73;;;8.90;99.90;;;;;;4999703;28;20203;-78
2022/12/22 12:18:20;;;;;;;4.50;2.23;;;9.00;99.90;;;;;;4999181;28;20202;-78
2022/12/22 12:21:02;;;;;;;4.30;2.00;;;8.80;99.90;;;;;;5006212;28;20234;-83
2022/12/22 12:26:11;;;;;;;3.97;1.87;;;8.60;99.90;;;;;;5171984;22;20215;-77
2022/12/22 12:28:49;;;;;;;4.10;2.20;;;8.50;99.90;;;;;;5056029;28;20215;-82
2022/12/22 12:31:18;;;;;;;3.63;1.93;;;8.40;99.90;;;;;;5059565;28;20181;-84
2022/12/22 12:33:49;;;;;;;4.00;1.97;;;8.50;99.90;;;;;;5057287;28;20198;-80
2022/12/22 12:36:23;;;;;;;13.23;7.93;;;8.50;99.90;;;;;;5057239;28;20228;-82
2022/12/22 12:39:01;;;;;;;7.63;2.70;;;8.60;99.90;;;;;;5051921;28;20283;-80
2022/12/22 12:41:36;;;;;;;6.40;2.33;;;8.50;99.90;;;;;;5046664;28;20190;-79
2022/12/22 12:44:04;;;;;;;3.93;1.93;;;8.50;99.90;;;;;;5052968;28;20200;-79
2022/12/22 12:47:04;;;;;;;3.63;1.60;;;8.50;99.90;;;;;;5054395;28;20256;-80
2022/12/22 12:49:53;;;;;;;2.83;1.50;;;8.50;99.90;;;;;;5035673;28;20253;-78
2022/12/22 12:53:04;;;;;;;4.80;1.87;;;8.50;99.90;;;;;;5035353;28;20658;-77
2022/12/22 12:55:33;;;;;;;3.33;1.67;;;8.50;99.90;;;;;;5036546;28;20202;-79
2022/12/22 12:58:02;;;;;;;4.03;1.70;;;8.60;99.90;;;;;;5044813;28;20209;-79
2022/12/22 13:00:47;;;;;;;4.87;1.90;;;8.50;99.90;;;;;;5041510;28;20226;-79
2022/12/22 13:03:36;;;;;;;4.10;1.60;;;8.50;99.90;;;;;;5050160;28;20204;-81
2022/12/22 13:06:05;;;;;;;2.97;1.37;;;8.60;99.90;;;;;;5039220;28;20260;-77
2022/12/22 13:08:33;;;;;;;4.17;1.63;;;8.70;99.90;;;;;;5036823;28;20570;-75
2022/12/22 13:11:31;;;;;;;3.77;1.30;;;8.60;99.90;;;;;;5036112;28;20202;-73
2022/12/22 13:13:58;;;;;;;2.90;1.53;;;8.70;99.90;;;;;;5035528;28;20716;-73
2022/12/22 13:16:31;;;;;;;3.47;1.73;;;8.70;99.90;;;;;;5035868;28;20202;-77
2022/12/22 13:18:59;;;;;;;8.50;4.50;;;8.70;99.90;;;;;;5038914;28;20241;-76
2022/12/22 13:21:30;;;;;;;4.53;2.23;;;8.70;99.90;;;;;;5035761;28;20206;-73
2022/12/22 13:24:03;;;;;;;7.90;2.77;;;8.70;99.90;;;;;;5034218;28;20203;-73
2022/12/22 13:26:34;;;;;;;8.23;3.60;;;8.70;99.90;;;;;;5034301;28;20747;-74
2022/12/22 13:29:07;;;;;;;14.00;5.60;;;8.80;99.90;;;;;;5034761;28;20249;-74
2022/12/22 13:31:40;;;;;;;3.17;2.10;;;8.80;99.90;;;;;;5034834;28;20262;-74
2022/12/22 13:34:19;;;;;;;6.23;2.57;;;8.80;99.90;;;;;;5034304;28;20716;-74
2022/12/22 13:36:48;;;;;;;5.90;2.10;;;8.90;99.90;;;;;;5034509;28;20205;-75
2022/12/22 13:39:16;;;;;;;9.63;7.30;;;8.90;99.90;;;;;;5034431;28;20279;-75
2022/12/22 13:41:46;;;;;;;4.77;1.80;;;9.00;99.90;;;;;;5034789;28;20206;-75
2022/12/22 13:44:17;;;;;;;4.50;1.73;;;9.00;99.90;;;;;;5035043;28;20202;-76
2022/12/22 13:46:44;;;;;;;5.77;1.97;;;9.00;99.90;;;;;;5034794;28;20198;-76
2022/12/22 13:49:16;;;;;;;2.97;1.70;;;9.00;99.90;;;;;;5037489;28;20330;-78
2022/12/22 13:51:43;;;;;;;4.97;1.90;;;9.10;99.90;;;;;;5041777;28;20256;-76
2022/12/22 13:54:14;;;;;;;5.40;2.10;;;9.10;99.90;;;;;;5041375;28;20217;-78
2022/12/22 13:56:45;;;;;;;5.23;1.97;;;9.10;99.90;;;;;;5039000;28;20605;-77
2022/12/22 13:59:26;;;;;;;27.20;14.00;;;9.20;99.90;;;;;;5037534;28;20616;-79
2022/12/22 14:01:58;;;;;;;9.53;4.87;;;9.20;99.90;;;;;;5033711;28;20224;-76
2022/12/22 14:04:24;;;;;;;7.17;3.43;;;9.20;99.90;;;;;;5032863;28;20203;-76
2022/12/22 14:06:53;;;;;;;7.83;7.00;;;9.20;99.90;;;;;;5034670;28;20202;-76
2022/12/22 14:09:22;;;;;;;1.73;1.40;;;9.20;99.90;;;;;;5034281;28;20229;-76
2022/12/22 14:11:54;;;;;;;2.93;1.70;;;9.10;99.90;;;;;;5035016;28;20301;-75
2022/12/22 14:14:24;;;;;;;2.90;1.50;;;9.10;99.90;;;;;;5042525;28;20271;-81
2022/12/22 14:16:53;;;;;;;1.93;1.50;;;9.10;99.90;;;;;;5051236;28;20210;-80
2022/12/22 14:19:21;;;;;;;3.80;1.63;;;9.10;99.90;;;;;;5056037;28;20202;-78
2022/12/22 14:21:52;;;;;;;3.37;1.40;;;9.10;99.90;;;;;;5038121;28;20646;-79
2022/12/22 14:24:22;;;;;;;3.13;1.70;;;9.10;99.90;;;;;;5037207;28;20662;-79
2022/12/22 14:26:51;;;;;;;2.77;1.50;;;9.10;99.90;;;;;;5080800;22;20226;-77
2022/12/22 14:29:22;;;;;;;2.93;1.67;;;9.00;99.90;;;;;;5021077;28;20214;-80
2022/12/22 14:31:53;;;;;;;2.70;1.50;;;9.10;99.90;;;;;;5031370;28;20207;-81
2022/12/22 14:34:27;;;;;;;3.93;1.87;;;9.00;99.90;;;;;;5028880;28;20306;-80
2022/12/22 14:36:54;;;;;;;3.47;1.70;;;8.80;99.90;;;;;;5022414;28;20304;-80
2022/12/22 14:39:22;;;;;;;5.50;2.20;;;8.80;99.90;;;;;;5026753;28;20199;-80
2022/12/22 14:41:52;;;;;;;4.73;1.90;;;8.60;99.90;;;;;;5031343;28;20198;-77
2022/12/22 14:44:23;;;;;;;4.23;2.33;;;8.60;99.90;;;;;;5031365;28;20207;-78
2022/12/22 14:47:05;;;;;;;3.20;1.77;;;8.60;99.90;;;;;;5032431;28;20609;-78
2022/12/22 14:49:33;;;;;;;2.73;1.90;;;8.60;99.90;;;;;;5021442;28;20203;-80
2022/12/22 14:52:06;;;;;;;5.07;2.30;;;8.60;99.90;;;;;;5025861;28;20206;-80
2022/12/22 14:54:33;;;;;;;6.03;2.13;;;8.50;99.90;;;;;;5024992;28;20199;-79
2022/12/22 14:57:05;;;;;;;5.70;2.40;;;8.50;99.90;;;;;;5024326;28;20377;-80
2022/12/22 14:59:33;;;;;;;3.60;2.00;;;8.50;99.90;;;;;;5025034;28;20206;-80
2022/12/22 15:02:02;;;;;;;4.90;2.10;;;8.60;99.90;;;;;;5027825;28;20253;-79
2022/12/22 15:04:30;;;;;;;4.97;2.37;;;8.60;99.90;;;;;;5024264;28;20203;-80
2022/12/22 15:07:06;;;;;;;3.10;1.93;;;8.70;99.90;;;;;;5029101;28;20206;-81
2022/12/22 15:09:33;;;;;;;2.40;2.20;;;8.70;99.90;;;;;;5039657;28;20199;-82
2022/12/22 15:12:07;;;;;;;5.00;2.30;;;8.70;99.90;;;;;;5040777;28;20183;-80
2022/12/22 15:14:36;;;;;;;5.10;2.67;;;8.70;99.90;;;;;;5022385;28;20203;-77
2022/12/22 15:17:03;;;;;;;3.70;2.40;;;8.70;99.90;;;;;;5018817;28;20198;-77
2022/12/22 15:19:32;;;;;;;3.27;2.30;;;8.70;99.90;;;;;;5021096;28;20273;-79
2022/12/22 15:21:59;;;;;;;4.07;2.77;;;8.80;99.90;;;;;;5019785;28;20202;-81
2022/12/22 15:24:28;;;;;;;3.90;2.57;;;8.70;99.90;;;;;;5327732;22;20232;-90
2022/12/22 15:26:55;;;;;;;4.10;2.30;;;8.70;99.90;;;;;;5524691;22;20238;-80
2022/12/22 15:29:23;;;;;;;4.43;2.90;;;8.80;99.90;;;;;;5053918;28;20199;-80
2022/12/22 15:31:50;;;;;;;6.07;2.87;;;8.70;99.90;;;;;;5047847;28;20231;-81
2022/12/22 15:34:23;;;;;;;4.77;3.10;;;8.70;99.90;;;;;;5051910;28;20206;-79
2022/12/22 15:36:49;;;;;;;5.40;3.30;;;8.70;99.90;;;;;;5029167;28;20272;-77
2022/12/22 15:39:17;;;;;;;3.50;2.87;;;8.70;99.90;;;;;;5035453;28;20194;-77
2022/12/22 15:41:44;;;;;;;5.47;3.00;;;8.80;99.90;;;;;;5025491;28;20227;-78
2022/12/22 15:44:11;;;;;;;4.30;3.33;;;8.70;99.90;;;;;;5017669;28;20218;-78
2022/12/22 15:46:43;;;;;;;7.77;2.83;;;8.80;99.90;;;;;;5017596;28;20242;-78
2022/12/22 15:49:14;;;;;;;4.57;2.60;;;8.80;99.90;;;;;;5017558;28;20195;-78
2022/12/22 15:51:43;;;;;;;3.63;2.40;;;8.80;99.90;;;;;;5016706;28;20296;-76
2022/12/22 15:54:13;;;;;;;5.80;2.30;;;8.80;99.90;;;;;;5017426;28;20197;-77
2022/12/22 15:56:40;;;;;;;5.00;2.57;;;8.80;99.90;;;;;;5027267;28;20715;-78
2022/12/22 15:59:13;;;;;;;6.40;2.80;;;8.70;99.90;;;;;;5036633;28;20712;-76
2022/12/22 16:01:41;;;;;;;5.53;2.73;;;8.70;99.90;;;;;;5037352;28;20221;-77
2022/12/22 16:04:07;;;;;;;5.23;2.70;;;8.80;99.90;;;;;;5036176;28;20195;-76
2022/12/22 16:06:34;;;;;;;5.87;2.87;;;8.70;99.90;;;;;;5027662;28;20663;-79
2022/12/22 16:09:01;;;;;;;5.90;3.20;;;8.70;99.90;;;;;;5016709;28;20690;-77
2022/12/22 16:11:27;;;;;;;8.77;4.50;;;8.70;99.90;;;;;;5016248;28;20195;-76
2022/12/22 16:13:54;;;;;;;8.70;4.73;;;8.60;99.90;;;;;;5017747;28;20199;-82
2022/12/22 16:16:21;;;;;;;8.20;4.50;;;8.60;99.90;;;;;;5023308;28;20729;-79
2022/12/22 16:18:49;;;;;;;15.77;8.80;;;8.50;99.90;;;;;;5020538;28;20681;-80
2022/12/22 16:21:20;;;;;;;8.83;4.93;;;8.40;99.90;;;;;;5027669;28;20230;-80
2022/12/22 16:23:49;;;;;;;14.33;8.17;;;8.40;99.90;;;;;;5016431;28;20203;-77
2022/12/22 16:26:18;;;;;;;25.03;11.37;;;8.50;99.90;;;;;;5015523;28;20230;-76
2022/12/22 16:28:44;;;;;;;21.70;8.93;;;8.40;99.90;;;;;;5015475;28;20204;-75
2022/12/22 16:31:17;;;;;;;14.77;6.50;;;8.50;99.90;;;;;;5015697;28;20237;-75
2022/12/22 16:33:44;;;;;;;11.27;6.30;;;8.50;99.90;;;;;;5015657;28;20225;-76
2022/12/22 16:36:12;;;;;;;15.30;6.93;;;8.50;99.90;;;;;;5015632;28;20199;-76
2022/12/22 16:38:40;;;;;;;13.30;6.90;;;8.50;99.90;;;;;;5015298;28;20248;-77
2022/12/22 16:41:15;;;;;;;10.93;5.27;;;8.40;99.90;;;;;;5016049;28;20238;-77
2022/12/22 16:43:42;;;;;;;11.07;5.77;;;8.40;99.90;;;;;;5015524;28;20202;-76
2022/12/22 16:46:14;;;;;;;11.37;5.70;;;8.50;99.90;;;;;;5014985;28;20555;-76